createdAt,value
2022-11-19T00:01:39.047Z,101409.69
2022-11-19T00:04:12.888Z,101415.31
2022-11-19T00:06:43.699Z,101413.66
2022-11-19T00:09:15.367Z,101410.84
2022-11-19T00:12:02.247Z,101417.31
2022-11-19T00:14:32.779Z,101414.03
2022-11-19T00:17:03.987Z,101420.47
2022-11-19T00:19:36.292Z,101420.47
2022-11-19T00:22:06.459Z,101411.22
2022-11-19T00:24:36.907Z,101426.47
2022-11-19T00:27:08.057Z,101419.19
2022-11-19T00:29:39.099Z,101422.38
2022-11-19T00:32:09.809Z,101441.25
2022-11-19T00:34:41.848Z,101433.66
2022-11-19T00:37:12.519Z,101429.53
2022-11-19T00:39:42.584Z,101425.91
2022-11-19T00:42:13.526Z,101432.72
2022-11-19T00:44:44.073Z,101426.28
2022-11-19T00:47:14.705Z,101422.13
2022-11-19T00:49:46.361Z,101421.69
2022-11-19T00:52:16.660Z,101425.22
2022-11-19T00:54:46.818Z,101415.50
2022-11-19T00:57:17.575Z,101420.28
2022-11-19T00:59:48.458Z,101417.84
2022-11-19T01:02:19.031Z,101419.00
2022-11-19T01:04:51.360Z,101417.38
2022-11-19T01:07:21.923Z,101417.72
2022-11-19T01:09:52.373Z,101414.06
2022-11-19T01:12:22.871Z,101415.25
2022-11-19T01:14:53.502Z,101409.16
2022-11-19T01:17:23.434Z,101413.13
2022-11-19T01:19:55.945Z,101415.94
2022-11-19T01:22:26.137Z,101418.28
2022-11-19T01:24:57.167Z,101410.22
2022-11-19T01:27:27.624Z,101414.19
2022-11-19T01:29:57.992Z,101419.81
2022-11-19T01:32:28.311Z,101415.69
2022-11-19T01:35:00.747Z,101420.06
2022-11-19T01:37:31.383Z,101419.94
2022-11-19T01:40:01.606Z,101415.84
2022-11-19T01:42:54.959Z,101418.66
2022-11-19T01:45:34.431Z,101421.00
2022-11-19T01:48:11.354Z,101423.81
2022-11-19T01:50:50.013Z,101435.88
2022-11-19T01:53:22.777Z,101429.09
2022-11-19T01:55:54.221Z,101431.91
2022-11-19T01:58:27.034Z,101434.38
2022-11-19T02:00:58.041Z,101440.00
2022-11-19T02:03:33.037Z,101428.75
2022-11-19T02:06:07.127Z,101439.66
2022-11-19T02:08:50.441Z,101433.22
2022-11-19T02:12:05.718Z,101434.25
2022-11-19T02:15:08.497Z,101432.97
2022-11-19T02:17:58.738Z,101432.84
2022-11-19T02:21:14.941Z,101432.75
2022-11-19T02:24:41.139Z,101427.81
2022-11-19T02:28:02.408Z,101437.78
2022-11-19T02:30:40.399Z,101434.97
2022-11-19T02:33:21.161Z,101436.25
2022-11-19T02:36:02.024Z,101439.91
2022-11-19T02:38:42.918Z,101438.72
2022-11-19T02:41:36.707Z,101436.72
2022-11-19T02:44:37.149Z,101441.53
2022-11-19T02:47:17.496Z,101444.69
2022-11-19T02:49:49.224Z,101448.66
2022-11-19T02:52:21.392Z,101445.41
2022-11-19T02:54:51.353Z,101450.56
2022-11-19T02:57:21.917Z,101452.53
2022-11-19T03:00:16.463Z,101449.72
2022-11-19T03:03:14.076Z,101451.25
2022-11-19T03:05:52.476Z,101454.75
2022-11-19T03:08:24.369Z,101453.94
2022-11-19T03:11:09.991Z,101466.84
2022-11-19T03:14:11.881Z,101471.19
2022-11-19T03:16:50.884Z,101470.72
2022-11-19T03:19:47.080Z,101469.44
2022-11-19T03:22:25.544Z,101472.59
2022-11-19T03:25:05.960Z,101478.91
2022-11-19T03:27:44.025Z,101474.31
2022-11-19T03:30:17.517Z,101489.44
2022-11-19T03:32:53.475Z,101500.88
2022-11-19T03:35:31.811Z,101502.75
2022-11-19T03:38:08.679Z,101502.28
2022-11-19T03:40:41.587Z,101507.06
2022-11-19T03:43:17.307Z,101510.25
2022-11-19T03:45:53.302Z,101513.06
2022-11-19T03:48:26.483Z,101518.69
2022-11-19T03:51:04.042Z,101520.34
2022-11-19T03:53:34.703Z,101521.16
2022-11-19T03:56:10.045Z,101522.44
2022-11-19T03:58:43.669Z,101533.69
2022-11-19T04:01:14.845Z,101535.34
2022-11-19T04:04:05.996Z,101535.34
2022-11-19T04:06:47.208Z,101538.97
2022-11-19T04:09:17.849Z,101540.94
2022-11-19T04:14:17.209Z,101545.41
2022-11-19T04:16:47.890Z,101549.06
2022-11-19T04:19:18.852Z,101557.50
2022-11-19T04:21:51.256Z,101554.69
2022-11-19T04:24:21.418Z,101554.69
2022-11-19T04:26:52.058Z,101557.84
2022-11-19T04:29:22.819Z,101560.66
2022-11-19T04:31:53.032Z,101564.63
2022-11-19T04:34:23.567Z,101556.19
2022-11-19T04:36:58.258Z,101562.66
2022-11-19T04:39:28.294Z,101565.78
2022-11-19T04:41:58.328Z,101574.22
2022-11-19T04:44:28.136Z,101572.59
2022-11-19T04:46:58.745Z,101576.22
2022-11-19T04:49:28.877Z,101578.69
2022-11-19T04:52:01.450Z,101590.06
2022-11-19T04:54:32.105Z,101596.00
2022-11-19T04:57:02.178Z,101596.38
2022-11-19T04:59:32.390Z,101595.13
2022-11-19T05:02:02.680Z,101598.00
2022-11-19T05:04:33.347Z,101588.38
2022-11-19T05:07:05.803Z,101597.34
2022-11-19T05:09:36.373Z,101593.03
2022-11-19T05:12:08.084Z,101595.88
2022-11-19T05:14:39.456Z,101601.84
2022-11-19T05:17:10.183Z,101602.06
2022-11-19T05:19:40.448Z,101605.84
2022-11-19T05:22:13.520Z,101603.50
2022-11-19T05:24:44.117Z,101608.75
2022-11-19T05:27:14.881Z,101609.22
2022-11-19T05:29:45.368Z,101614.88
2022-11-19T05:32:15.488Z,101617.31
2022-11-19T05:34:45.652Z,101619.91
2022-11-19T05:37:18.155Z,101610.03
2022-11-19T05:39:48.812Z,101615.13
2022-11-19T05:42:19.518Z,101611.91
2022-11-19T05:44:49.609Z,101628.13
2022-11-19T05:47:20.109Z,101623.84
2022-11-19T05:49:50.669Z,101628.13
2022-11-19T05:52:23.270Z,101621.91
2022-11-19T05:55:06.287Z,101634.38
2022-11-19T05:57:37.507Z,101630.94
2022-11-19T06:00:09.429Z,101628.31
2022-11-19T06:02:40.167Z,101634.97
2022-11-19T06:05:12.154Z,101639.97
2022-11-19T06:07:45.101Z,101640.09
2022-11-19T06:10:16.590Z,101640.59
2022-11-19T06:12:47.472Z,101641.88
2022-11-19T06:15:18.717Z,101646.34
2022-11-19T06:17:49.005Z,101642.25
2022-11-19T06:20:20.344Z,101645.91
2022-11-19T06:22:53.287Z,101641.00
2022-11-19T06:25:23.729Z,101646.19
2022-11-19T06:27:54.197Z,101646.50
2022-11-19T06:30:25.016Z,101650.81
2022-11-19T06:32:55.566Z,101655.97
2022-11-19T06:35:26.518Z,101652.97
2022-11-19T06:37:58.330Z,101671.03
2022-11-19T06:40:29.051Z,101661.91
2022-11-19T06:42:58.619Z,101657.66
2022-11-19T06:45:29.329Z,101667.56
2022-11-19T06:48:00.001Z,101667.72
2022-11-19T06:50:29.771Z,101664.25
2022-11-19T06:53:02.366Z,101666.09
2022-11-19T06:55:33.025Z,101673.94
2022-11-19T06:58:05.722Z,101670.81
2022-11-19T07:00:36.807Z,101676.22
2022-11-19T07:03:07.894Z,101675.91
2022-11-19T07:05:38.797Z,101682.03
2022-11-19T07:08:11.400Z,101673.19
2022-11-19T07:10:41.934Z,101676.94
2022-11-19T07:13:12.542Z,101675.03
2022-11-19T07:15:43.485Z,101678.84
2022-11-19T07:18:14.518Z,101671.22
2022-11-19T07:20:47.504Z,101661.09
2022-11-19T07:23:20.725Z,101664.44
2022-11-19T07:25:51.470Z,101666.97
2022-11-19T07:28:21.465Z,101668.66
2022-11-19T07:30:51.482Z,101662.59
2022-11-19T07:33:21.959Z,101668.75
2022-11-19T07:35:52.255Z,101665.53
2022-11-19T07:38:24.386Z,101666.81
2022-11-19T07:40:56.635Z,101661.53
2022-11-19T07:43:25.716Z,101667.69
2022-11-19T07:45:55.661Z,101665.66
2022-11-19T07:48:26.240Z,101658.75
2022-11-19T07:50:56.723Z,101662.03
2022-11-19T07:53:29.464Z,101661.63
2022-11-19T07:56:03.467Z,101658.75
2022-11-19T07:58:33.932Z,101655.91
2022-11-19T08:01:11.896Z,101644.44
2022-11-19T08:03:45.792Z,101650.94
2022-11-19T08:06:17.175Z,101639.84
2022-11-19T08:08:50.637Z,101649.19
2022-11-19T08:11:21.093Z,101644.22
2022-11-19T08:13:51.816Z,101643.78
2022-11-19T08:16:35.742Z,101643.72
2022-11-19T08:19:09.033Z,101641.63
2022-11-19T08:21:43.375Z,101636.28
2022-11-19T08:24:18.225Z,101636.25
2022-11-19T08:26:49.505Z,101630.53
2022-11-19T08:29:24.156Z,101635.81
2022-11-19T08:31:54.644Z,101622.38
2022-11-19T08:34:25.485Z,101620.75
2022-11-19T08:36:56.575Z,101613.84
2022-11-19T08:39:32.369Z,101627.41
2022-11-19T08:42:19.531Z,101620.50
2022-11-19T08:44:50.474Z,101614.41
2022-11-19T08:47:20.678Z,101617.72
2022-11-19T08:49:51.339Z,101615.34
2022-11-19T08:52:21.841Z,101610.06
2022-11-19T08:54:56.054Z,101612.53
2022-11-19T08:57:26.479Z,101608.44
2022-11-19T08:59:59.130Z,101607.69
2022-11-19T09:02:33.731Z,101594.63
2022-11-19T09:05:04.649Z,101594.66
2022-11-19T09:07:35.504Z,101589.38
2022-11-19T09:10:09.175Z,101589.81
2022-11-19T09:12:40.021Z,101586.13
2022-11-19T09:15:12.331Z,101587.34
2022-11-19T09:17:46.747Z,101588.59
2022-11-19T09:20:17.969Z,101582.50
2022-11-19T09:22:48.857Z,101586.59
2022-11-19T09:25:21.670Z,101582.50
2022-11-19T09:27:52.548Z,101569.88
2022-11-19T09:30:23.417Z,101569.84
2022-11-19T09:32:54.308Z,101569.84
2022-11-19T09:35:23.963Z,101566.16
2022-11-19T09:37:53.691Z,101562.53
2022-11-19T09:40:26.547Z,101569.41
2022-11-19T09:43:15.257Z,101562.91
2022-11-19T09:46:02.185Z,101571.00
2022-11-19T09:48:38.261Z,101565.69
2022-11-19T09:51:15.383Z,101564.84
2022-11-19T09:53:54.012Z,101565.22
2022-11-19T09:56:36.180Z,101564.78
2022-11-19T09:59:15.609Z,101561.88
2022-11-19T10:01:46.353Z,101568.78
2022-11-19T10:04:18.547Z,101559.81
2022-11-19T10:07:02.790Z,101564.66
2022-11-19T10:09:56.419Z,101557.66
2022-11-19T10:12:52.902Z,101554.00
2022-11-19T10:15:37.579Z,101554.75
2022-11-19T10:18:17.516Z,101559.56
2022-11-19T10:21:04.667Z,101561.97
2022-11-19T10:23:50.959Z,101560.72
2022-11-19T10:26:29.941Z,101556.59
2022-11-19T10:29:02.762Z,101560.19
2022-11-19T10:31:39.607Z,101560.94
2022-11-19T10:34:20.841Z,101551.97
2022-11-19T10:36:59.718Z,101549.50
2022-11-19T10:39:39.174Z,101552.19
2022-11-19T10:42:21.878Z,101552.56
2022-11-19T10:45:01.934Z,101559.00
2022-11-19T10:47:40.690Z,101557.31
2022-11-19T10:50:21.387Z,101560.50
2022-11-19T10:52:58.191Z,101552.34
2022-11-19T10:55:35.056Z,101562.41
2022-11-19T10:58:18.692Z,101556.63
2022-11-19T11:00:51.590Z,101552.50
2022-11-19T11:03:29.421Z,101551.59
2022-11-19T11:06:05.799Z,101547.41
2022-11-19T11:08:49.299Z,101547.78
2022-11-19T11:11:51.442Z,101546.91
2022-11-19T11:14:41.859Z,101534.31
2022-11-19T11:17:28.933Z,101534.28
2022-11-19T11:20:03.539Z,101528.56
2022-11-19T11:22:34.409Z,101527.28
2022-11-19T11:25:07.607Z,101534.09
2022-11-19T11:27:38.694Z,101523.09
2022-11-19T11:30:20.366Z,101524.63
2022-11-19T11:32:52.025Z,101522.59
2022-11-19T11:35:36.970Z,101516.44
2022-11-19T11:38:08.371Z,101520.44
2022-11-19T11:40:39.887Z,101531.34
2022-11-19T11:43:21.158Z,101524.88
2022-11-19T11:46:00.580Z,101528.06
2022-11-19T11:48:39.878Z,101517.06
2022-11-19T11:51:10.441Z,101517.41
2022-11-19T11:53:43.304Z,101521.84
2022-11-19T11:56:14.076Z,101522.22
2022-11-19T11:58:44.479Z,101524.22
2022-11-19T12:01:18.782Z,101520.59
2022-11-19T12:04:00.302Z,101517.72
2022-11-19T12:06:43.289Z,101515.63
2022-11-19T12:09:24.829Z,101518.88
2022-11-19T12:12:05.400Z,101512.34
2022-11-19T12:14:43.778Z,101512.28
2022-11-19T12:17:45.580Z,101512.25
2022-11-19T12:20:56.166Z,101511.72
2022-11-19T12:23:55.628Z,101511.66
2022-11-19T12:26:39.071Z,101513.19
2022-11-19T12:29:27.004Z,101517.16
2022-11-19T12:32:22.984Z,101513.84
2022-11-19T12:35:28.918Z,101511.41
2022-11-19T12:38:37.632Z,101519.06
2022-11-19T12:41:46.492Z,101513.41
2022-11-19T12:44:40.036Z,101518.69
2022-11-19T12:47:31.369Z,101511.41
2022-11-19T12:50:24.100Z,101523.53
2022-11-19T12:53:35.325Z,101521.09
2022-11-19T12:56:28.557Z,101523.50
2022-11-19T12:59:14.821Z,101524.69
2022-11-19T13:01:53.223Z,101523.84
2022-11-19T13:04:32.614Z,101519.31
2022-11-19T13:07:11.098Z,101513.56
2022-11-19T13:09:49.950Z,101529.38
2022-11-19T13:12:26.507Z,101524.09
2022-11-19T13:15:03.604Z,101525.28
2022-11-19T13:17:40.888Z,101530.16
2022-11-19T13:20:22.277Z,101535.00
2022-11-19T13:22:56.484Z,101526.84
2022-11-19T13:25:33.590Z,101531.69
2022-11-19T13:28:12.895Z,101534.50
2022-11-19T13:30:47.915Z,101537.75
2022-11-19T13:33:25.844Z,101536.94
2022-11-19T13:36:04.093Z,101536.50
2022-11-19T13:38:47.184Z,101543.75
2022-11-19T13:41:27.075Z,101543.25
2022-11-19T13:44:16.099Z,101539.50
2022-11-19T13:46:52.573Z,101540.66
2022-11-19T13:49:31.890Z,101548.25
2022-11-19T13:52:09.659Z,101547.00
2022-11-19T13:54:44.014Z,101549.03
2022-11-19T13:57:32.009Z,101558.34
2022-11-19T14:00:07.645Z,101567.28
2022-11-19T14:03:20.403Z,101564.00
2022-11-19T14:06:31.436Z,101566.72
2022-11-19T14:09:22.488Z,101568.66
2022-11-19T14:12:30.469Z,101573.53
2022-11-19T14:16:04.668Z,101568.59
2022-11-19T14:18:58.662Z,101564.13
2022-11-19T14:22:17.846Z,101569.34
2022-11-19T14:25:16.101Z,101575.41
2022-11-19T14:27:47.827Z,101578.63
2022-11-19T14:30:23.740Z,101573.75
2022-11-19T14:32:55.563Z,101576.59
2022-11-19T14:35:42.037Z,101576.59
2022-11-19T14:38:50.583Z,101579.81
2022-11-19T14:41:32.302Z,101581.41
2022-11-19T14:44:10.324Z,101578.91
2022-11-19T14:46:58.018Z,101583.38
2022-11-19T14:49:36.429Z,101585.41
2022-11-19T14:52:22.821Z,101595.91
2022-11-19T14:54:59.689Z,101590.97
2022-11-19T14:57:35.401Z,101591.28
2022-11-19T15:00:10.225Z,101593.59
2022-11-19T15:02:49.593Z,101604.84
2022-11-19T15:05:24.230Z,101599.94
2022-11-19T15:08:31.283Z,101604.34
2022-11-19T15:11:11.891Z,101598.59
2022-11-19T15:13:43.336Z,101601.81
2022-11-19T15:16:18.763Z,101601.81
2022-11-19T15:19:29.507Z,101603.00
2022-11-19T15:22:31.146Z,101612.69
2022-11-19T15:25:31.087Z,101608.22
2022-11-19T15:28:22.504Z,101609.03
2022-11-19T15:31:28.567Z,101615.44
2022-11-19T15:34:49.242Z,101615.72
2022-11-19T15:37:36.861Z,101623.69
2022-11-19T15:40:14.514Z,101629.66
2022-11-19T15:42:54.453Z,101626.38
2022-11-19T15:45:27.609Z,101635.16
2022-11-19T15:48:13.576Z,101635.91
2022-11-19T15:50:47.738Z,101647.94
2022-11-19T15:53:22.020Z,101642.19
2022-11-19T15:55:58.232Z,101648.22
2022-11-19T15:58:36.632Z,101655.06
2022-11-19T16:01:08.024Z,101650.94
2022-11-19T16:03:41.623Z,101661.00
2022-11-19T16:09:09.097Z,101669.50
2022-11-19T16:11:58.280Z,101672.31
2022-11-19T16:14:47.858Z,101677.97
2022-11-19T16:17:43.094Z,101679.16
2022-11-19T16:20:23.239Z,101673.16
2022-11-19T16:23:02.096Z,101677.19
2022-11-19T16:25:50.613Z,101670.34
2022-11-19T16:28:27.225Z,101678.44
2022-11-19T16:31:05.211Z,101681.66
2022-11-19T16:33:36.799Z,101690.94
2022-11-19T16:36:19.217Z,101681.66
2022-11-19T16:38:52.910Z,101685.66
2022-11-19T16:41:44.722Z,101680.00
2022-11-19T16:44:21.817Z,101697.34
2022-11-19T16:46:53.708Z,101694.50
2022-11-19T16:49:35.373Z,101698.53
2022-11-19T16:52:08.107Z,101706.19
2022-11-19T16:54:55.382Z,101702.91
2022-11-19T16:57:31.606Z,101708.56
2022-11-19T17:00:04.988Z,101709.75
2022-11-19T17:02:42.464Z,101714.59
2022-11-19T17:05:16.562Z,101715.78
2022-11-19T17:07:53.018Z,101709.66
2022-11-19T17:10:32.959Z,101713.69
2022-11-19T17:13:16.892Z,101717.28
2022-11-19T17:15:49.358Z,101716.44
2022-11-19T17:18:23.873Z,101711.16
2022-11-19T17:20:57.905Z,101717.16
2022-11-19T17:23:30.417Z,101724.03
2022-11-19T17:26:03.563Z,101729.22
2022-11-19T17:28:52.642Z,101729.56
2022-11-19T17:31:26.745Z,101729.94
2022-11-19T17:33:58.938Z,101735.97
2022-11-19T17:36:29.988Z,101737.97
2022-11-19T17:39:00.798Z,101734.66
2022-11-19T17:41:49.115Z,101729.38
2022-11-19T17:44:39.562Z,101735.78
2022-11-19T17:47:23.213Z,101737.31
2022-11-19T17:49:55.277Z,101738.50
2022-11-19T17:52:28.307Z,101736.84
2022-11-19T17:55:06.328Z,101742.09
2022-11-19T17:57:42.187Z,101750.91
2022-11-19T18:00:17.924Z,101752.47
2022-11-19T18:02:49.708Z,101757.66
2022-11-19T18:05:26.658Z,101758.00
2022-11-19T18:07:57.505Z,101766.81
2022-11-19T18:10:28.984Z,101757.91
2022-11-19T18:12:59.379Z,101771.59
2022-11-19T18:15:32.765Z,101771.97
2022-11-19T18:18:03.018Z,101774.31
2022-11-19T18:20:32.943Z,101778.66
2022-11-19T18:23:04.156Z,101771.41
2022-11-19T18:25:34.998Z,101779.41
2022-11-19T18:28:06.332Z,101781.78
2022-11-19T18:30:39.480Z,101771.66
2022-11-19T18:33:12.113Z,101780.50
2022-11-19T18:35:42.529Z,101781.69
2022-11-19T18:38:13.330Z,101783.66
2022-11-19T18:40:43.903Z,101775.56
2022-11-19T18:43:30.569Z,101779.94
2022-11-19T18:46:03.219Z,101776.63
2022-11-19T18:48:41.300Z,101789.13
2022-11-19T18:51:15.086Z,101786.66
2022-11-19T18:53:46.989Z,101787.00
2022-11-19T18:56:19.880Z,101776.91
2022-11-19T18:58:51.712Z,101790.22
2022-11-19T19:01:24.568Z,101787.75
2022-11-19T19:03:55.360Z,101782.44
2022-11-19T19:06:27.471Z,101779.19
2022-11-19T19:08:58.549Z,101780.34
2022-11-19T19:11:45.177Z,101784.34
2022-11-19T19:14:16.723Z,101783.44
2022-11-19T19:16:49.005Z,101777.78
2022-11-19T19:19:20.910Z,101788.59
2022-11-19T19:21:51.545Z,101791.00
2022-11-19T19:24:22.442Z,101786.84
2022-11-19T19:26:53.126Z,101790.06
2022-11-19T19:29:24.037Z,101785.13
2022-11-19T19:31:57.658Z,101796.78
2022-11-19T19:34:28.521Z,101791.50
2022-11-19T19:37:02.800Z,101789.84
2022-11-19T19:39:33.716Z,101799.00
2022-11-19T19:42:04.482Z,101798.53
2022-11-19T19:44:35.219Z,101793.25
2022-11-19T19:47:08.386Z,101795.59
2022-11-19T19:49:39.879Z,101792.31
2022-11-19T19:52:10.831Z,101794.66
2022-11-19T19:54:43.337Z,101793.03
2022-11-19T19:57:13.518Z,101795.41
2022-11-19T19:59:44.492Z,101795.75
2022-11-19T20:02:17.701Z,101790.47
2022-11-19T20:04:49.878Z,101793.28
2022-11-19T20:07:20.722Z,101795.28
2022-11-19T20:09:50.492Z,101802.13
2022-11-19T20:12:20.522Z,101789.19
2022-11-19T20:14:51.146Z,101789.50
2022-11-19T20:17:23.830Z,101797.19
2022-11-19T20:19:54.586Z,101800.38
2022-11-19T20:22:33.644Z,101799.53
2022-11-19T20:25:04.244Z,101798.25
2022-11-19T20:27:34.986Z,101796.59
2022-11-19T20:30:05.913Z,101801.44
2022-11-19T20:32:44.682Z,101810.25
2022-11-19T20:35:18.490Z,101804.97
2022-11-19T20:37:50.078Z,101802.50
2022-11-19T20:40:21.034Z,101809.34
2022-11-19T20:43:07.992Z,101814.97
2022-11-19T20:45:54.181Z,101816.50
2022-11-19T20:48:26.844Z,101811.22
2022-11-19T20:53:45.649Z,101818.03
2022-11-19T20:56:16.483Z,101817.22
2022-11-19T20:58:47.362Z,101815.56
2022-11-19T21:01:18.021Z,101816.75
2022-11-19T21:03:51.005Z,101817.91
2022-11-19T21:06:22.350Z,101820.25
2022-11-19T21:08:53.295Z,101812.16
2022-11-19T21:11:24.597Z,101813.34
2022-11-19T21:13:55.411Z,101811.69
2022-11-19T21:16:29.103Z,101808.06
2022-11-19T21:19:01.339Z,101807.59
2022-11-19T21:21:32.691Z,101801.84
2022-11-19T21:24:04.149Z,101802.63
2022-11-19T21:26:47.474Z,101805.81
2022-11-19T21:29:25.502Z,101807.00
2022-11-19T21:31:55.976Z,101802.91
2022-11-19T21:34:28.790Z,101804.06
2022-11-19T21:36:59.513Z,101807.69
2022-11-19T21:39:30.177Z,101808.06
2022-11-19T21:42:00.310Z,101805.25
2022-11-19T21:44:33.154Z,101794.31
2022-11-19T21:47:16.405Z,101793.44
2022-11-19T21:49:48.522Z,101795.47
2022-11-19T21:52:18.959Z,101796.63
2022-11-19T21:54:49.643Z,101788.50
2022-11-19T21:57:20.247Z,101792.53
2022-11-19T21:59:50.234Z,101798.50
2022-11-19T22:02:20.886Z,101793.22
2022-11-19T22:04:52.985Z,101790.41
2022-11-19T22:07:23.106Z,101792.75
2022-11-19T22:09:54.119Z,101788.28
2022-11-19T22:12:24.854Z,101790.63
2022-11-19T22:14:55.617Z,101794.97
2022-11-19T22:17:31.505Z,101787.22
2022-11-19T22:20:04.948Z,101783.47
2022-11-19T22:22:35.615Z,101782.88
2022-11-19T22:25:06.176Z,101784.75
2022-11-19T22:27:36.672Z,101781.00
2022-11-19T22:30:08.815Z,101784.53
2022-11-19T22:32:39.775Z,101786.06
2022-11-19T22:35:12.456Z,101799.31
2022-11-19T22:37:42.678Z,101783.56
2022-11-19T22:40:13.905Z,101794.84
2022-11-19T22:42:43.763Z,101788.41
2022-11-19T22:45:14.110Z,101790.03
2022-11-19T22:47:44.243Z,101787.56
2022-11-19T22:50:16.949Z,101790.38
2022-11-19T22:52:47.243Z,101785.94
2022-11-19T22:55:17.461Z,101779.47
2022-11-19T22:57:47.627Z,101779.47
2022-11-19T23:00:46.790Z,101774.19
2022-11-19T23:03:17.588Z,101772.91
2022-11-19T23:05:52.193Z,101775.72
2022-11-19T23:08:23.188Z,101771.59
2022-11-19T23:11:00.872Z,101774.75
2022-11-19T23:13:34.943Z,101766.19
2022-11-19T23:16:11.217Z,101760.88
2022-11-19T23:18:44.578Z,101758.78
2022-11-19T23:21:19.207Z,101759.44
2022-11-19T23:23:50.309Z,101757.00
2022-11-19T23:26:23.834Z,101752.53
2022-11-19T23:28:55.286Z,101752.84
2022-11-19T23:31:29.618Z,101752.84
2022-11-19T23:34:00.275Z,101752.03
2022-11-19T23:36:32.862Z,101752.03
2022-11-19T23:39:03.314Z,101747.22
2022-11-19T23:41:35.163Z,101755.66
2022-11-19T23:44:06.009Z,101750.03
2022-11-19T23:46:38.603Z,101746.03
2022-11-19T23:49:09.297Z,101750.50
2022-11-19T23:51:41.184Z,101749.69
2022-11-19T23:54:14.757Z,101745.22
2022-11-19T23:56:45.463Z,101744.38
2022-11-19T23:59:15.645Z,101745.22
